Time;durP1;ratioP1;P1;durP2;ratioP2;P2;SDS_P1;SDS_P2;PMS_P1;PMS_P2;Temp;Humidity;BMP_temperature;BMP_pressure;BME280_temperature;BME280_humidity;BME280_pressure;Samples;Min_cycle;Max_cycle;Signal;HPM_P1;HPM_P2
2022/04/06 00:00:00;;;;;;;21.1;12.1;;;;;;;9.5;100.0;100210;;;;
2022/04/06 00:01:00;;;;;;;21.1;12.1;;;;;;;9.4;100.0;100210;;;;
2022/04/06 00:02:00;;;;;;;21.1;12.1;;;;;;;9.4;100.0;100210;;;;
2022/04/06 00:03:00;;;;;;;21.1;12.1;;;;;;;9.4;100.0;100210;;;;
2022/04/06 00:04:00;;;;;;;21.1;12.1;;;;;;;9.4;100.0;100210;;;;
2022/04/06 00:05:01;;;;;;;21.1;12.1;;;;;;;9.4;100.0;100200;;;;
2022/04/06 00:06:00;;;;;;;21.1;12.1;;;;;;;9.4;100.0;100200;;;;
2022/04/06 00:07:00;;;;;;;21.1;12.1;;;;;;;9.4;100.0;100200;;;;
2022/04/06 00:08:00;;;;;;;21.1;12.1;;;;;;;9.4;100.0;100200;;;;
2022/04/06 00:09:00;;;;;;;21.1;12.1;;;;;;;9.4;100.0;100200;;;;
2022/04/06 00:10:00;;;;;;;21.1;12.1;;;;;;;9.4;100.0;100200;;;;
2022/04/06 00:11:00;;;;;;;21.3;11.8;;;;;;;9.5;100.0;100200;;;;
2022/04/06 00:12:00;;;;;;;21.3;11.8;;;;;;;9.5;100.0;100200;;;;
2022/04/06 00:13:00;;;;;;;21.3;11.8;;;;;;;9.4;100.0;100200;;;;
2022/04/06 00:14:00;;;;;;;21.3;11.8;;;;;;;9.4;100.0;100200;;;;
2022/04/06 00:15:00;;;;;;;21.3;11.8;;;;;;;9.4;100.0;100200;;;;
2022/04/06 00:16:00;;;;;;;21.3;11.8;;;;;;;9.4;100.0;100200;;;;
2022/04/06 00:17:04;;;;;;;21.3;11.8;;;;;;;9.4;100.0;100200;;;;
2022/04/06 00:18:00;;;;;;;21.3;11.8;;;;;;;9.4;100.0;100200;;;;
2022/04/06 00:19:00;;;;;;;21.3;11.8;;;;;;;9.5;100.0;100200;;;;
2022/04/06 00:20:00;;;;;;;21.3;11.8;;;;;;;9.5;100.0;100200;;;;
2022/04/06 00:21:00;;;;;;;21.3;11.8;;;;;;;9.5;100.0;100200;;;;
2022/04/06 00:22:00;;;;;;;21.3;11.8;;;;;;;9.5;100.0;100200;;;;
2022/04/06 00:23:00;;;;;;;21.3;11.8;;;;;;;9.4;100.0;100190;;;;
2022/04/06 00:24:00;;;;;;;21.3;11.8;;;;;;;9.4;100.0;100190;;;;
2022/04/06 00:25:00;;;;;;;21.3;11.8;;;;;;;9.3;100.0;100200;;;;
2022/04/06 00:26:00;;;;;;;21.3;11.8;;;;;;;9.3;100.0;100200;;;;
2022/04/06 00:27:00;;;;;;;21.3;11.8;;;;;;;9.4;100.0;100190;;;;
2022/04/06 00:28:00;;;;;;;21.3;11.8;;;;;;;9.4;100.0;100190;;;;
2022/04/06 00:29:00;;;;;;;21.3;11.8;;;;;;;9.4;100.0;100190;;;;
2022/04/06 00:30:00;;;;;;;19.4;11.7;;;;;;;9.4;100.0;100190;;;;
2022/04/06 00:31:00;;;;;;;19.4;11.7;;;;;;;9.4;100.0;100190;;;;
2022/04/06 00:32:00;;;;;;;19.4;11.7;;;;;;;9.4;100.0;100190;;;;
2022/04/06 00:33:00;;;;;;;19.4;11.7;;;;;;;9.5;100.0;100190;;;;
2022/04/06 00:34:00;;;;;;;19.4;11.7;;;;;;;9.5;100.0;100190;;;;
2022/04/06 00:36:00;;;;;;;19.4;11.7;;;;;;;9.4;100.0;100190;;;;
2022/04/06 00:37:00;;;;;;;19.4;11.7;;;;;;;9.4;100.0;100180;;;;
2022/04/06 00:38:01;;;;;;;19.4;11.7;;;;;;;9.4;100.0;100180;;;;
2022/04/06 00:39:00;;;;;;;19.4;11.7;;;;;;;9.4;100.0;100180;;;;
2022/04/06 00:40:00;;;;;;;19.4;11.7;;;;;;;9.4;100.0;100180;;;;
2022/04/06 00:41:00;;;;;;;19.4;11.7;;;;;;;9.4;100.0;100180;;;;
2022/04/06 00:42:00;;;;;;;19.4;11.7;;;;;;;9.4;100.0;100180;;;;
2022/04/06 00:43:00;;;;;;;19.4;11.7;;;;;;;9.4;100.0;100180;;;;
2022/04/06 00:44:10;;;;;;;19.4;11.7;;;;;;;9.4;100.0;100180;;;;
2022/04/06 00:45:00;;;;;;;19.4;11.7;;;;;;;9.4;100.0;100180;;;;
2022/04/06 00:46:00;;;;;;;19.4;11.7;;;;;;;9.4;100.0;100180;;;;
2022/04/06 00:47:00;;;;;;;19.4;11.7;;;;;;;9.4;100.0;100180;;;;
2022/04/06 00:48:00;;;;;;;19.4;11.7;;;;;;;9.4;100.0;100180;;;;
2022/04/06 00:49:00;;;;;;;19.4;11.7;;;;;;;9.3;100.0;100180;;;;
2022/04/06 00:50:00;;;;;;;16.2;10.3;;;;;;;9.3;100.0;100180;;;;
2022/04/06 00:51:00;;;;;;;16.2;10.3;;;;;;;9.2;100.0;100170;;;;
2022/04/06 00:52:01;;;;;;;16.2;10.3;;;;;;;9.2;100.0;100170;;;;
2022/04/06 00:53:00;;;;;;;16.2;10.3;;;;;;;9.3;100.0;100170;;;;
2022/04/06 00:54:00;;;;;;;16.2;10.3;;;;;;;9.3;100.0;100170;;;;
2022/04/06 00:55:00;;;;;;;16.2;10.3;;;;;;;9.3;100.0;100170;;;;
2022/04/06 00:56:00;;;;;;;16.2;10.3;;;;;;;9.3;100.0;100170;;;;
2022/04/06 00:57:00;;;;;;;16.2;10.3;;;;;;;9.3;100.0;100170;;;;
2022/04/06 00:58:00;;;;;;;16.2;10.3;;;;;;;9.3;100.0;100170;;;;
2022/04/06 00:59:00;;;;;;;16.2;10.3;;;;;;;9.3;100.0;100170;;;;
2022/04/06 01:00:00;;;;;;;16.2;10.3;;;;;;;9.3;100.0;100170;;;;
2022/04/06 01:01:00;;;;;;;16.2;10.3;;;;;;;9.3;100.0;100160;;;;
2022/04/06 01:02:00;;;;;;;16.2;10.3;;;;;;;9.3;100.0;100160;;;;
2022/04/06 01:03:00;;;;;;;16.2;10.3;;;;;;;9.2;100.0;100170;;;;
2022/04/06 01:04:00;;;;;;;16.2;10.3;;;;;;;9.2;100.0;100170;;;;
2022/04/06 01:05:00;;;;;;;16.2;10.3;;;;;;;9.3;100.0;100160;;;;
2022/04/06 01:06:00;;;;;;;16.2;10.3;;;;;;;9.3;100.0;100160;;;;
2022/04/06 01:07:00;;;;;;;16.2;10.3;;;;;;;9.3;100.0;100160;;;;
2022/04/06 01:08:01;;;;;;;16.2;10.3;;;;;;;9.3;100.0;100160;;;;
2022/04/06 01:09:01;;;;;;;16.2;10.3;;;;;;;9.2;100.0;100160;;;;
2022/04/06 01:10:00;;;;;;;20.9;10.5;;;;;;;9.2;100.0;100160;;;;
2022/04/06 01:11:00;;;;;;;20.9;10.5;;;;;;;9.2;100.0;100160;;;;
2022/04/06 01:12:00;;;;;;;20.9;10.5;;;;;;;9.2;100.0;100160;;;;
2022/04/06 01:13:00;;;;;;;20.9;10.5;;;;;;;9.2;100.0;100160;;;;
2022/04/06 01:14:00;;;;;;;20.9;10.5;;;;;;;9.2;100.0;100160;;;;
2022/04/06 01:15:00;;;;;;;20.9;10.5;;;;;;;9.2;100.0;100160;;;;
2022/04/06 01:16:00;;;;;;;20.9;10.5;;;;;;;9.2;100.0;100160;;;;
2022/04/06 01:17:01;;;;;;;20.9;10.5;;;;;;;9.2;100.0;100160;;;;
2022/04/06 01:18:00;;;;;;;20.9;10.5;;;;;;;9.2;100.0;100160;;;;
2022/04/06 01:19:00;;;;;;;20.9;10.5;;;;;;;9.2;100.0;100150;;;;
2022/04/06 01:20:00;;;;;;;20.9;10.5;;;;;;;9.2;100.0;100150;;;;
2022/04/06 01:21:00;;;;;;;20.9;10.5;;;;;;;9.2;100.0;100160;;;;
2022/04/06 01:22:00;;;;;;;20.9;10.5;;;;;;;9.2;100.0;100160;;;;
2022/04/06 01:23:00;;;;;;;20.9;10.5;;;;;;;9.2;100.0;100160;;;;
2022/04/06 01:24:00;;;;;;;20.9;10.5;;;;;;;9.2;100.0;100160;;;;
2022/04/06 01:25:07;;;;;;;20.9;10.5;;;;;;;9.3;100.0;100160;;;;
2022/04/06 01:26:00;;;;;;;20.9;10.5;;;;;;;9.3;100.0;100160;;;;
2022/04/06 01:27:01;;;;;;;20.9;10.5;;;;;;;9.3;100.0;100150;;;;
2022/04/06 01:28:00;;;;;;;20.9;10.5;;;;;;;9.3;100.0;100150;;;;
2022/04/06 01:29:00;;;;;;;20.9;10.5;;;;;;;9.3;100.0;100150;;;;
2022/04/06 01:30:00;;;;;;;18.2;9.7;;;;;;;9.3;100.0;100150;;;;
2022/04/06 01:31:00;;;;;;;18.2;9.7;;;;;;;9.2;100.0;100150;;;;
2022/04/06 01:32:10;;;;;;;18.2;9.7;;;;;;;9.2;100.0;100150;;;;
2022/04/06 01:33:04;;;;;;;18.2;9.7;;;;;;;9.2;100.0;100150;;;;
2022/04/06 01:34:00;;;;;;;18.2;9.7;;;;;;;9.2;100.0;100150;;;;
2022/04/06 01:35:00;;;;;;;18.2;9.7;;;;;;;9.2;100.0;100140;;;;
2022/04/06 01:36:00;;;;;;;18.2;9.7;;;;;;;9.2;100.0;100140;;;;
2022/04/06 01:37:00;;;;;;;18.2;9.7;;;;;;;9.1;100.0;100140;;;;
2022/04/06 01:38:00;;;;;;;18.2;9.7;;;;;;;9.1;100.0;100140;;;;
2022/04/06 01:39:00;;;;;;;18.2;9.7;;;;;;;9.2;100.0;100140;;;;
2022/04/06 01:40:00;;;;;;;18.2;9.7;;;;;;;9.2;100.0;100140;;;;
2022/04/06 01:41:00;;;;;;;18.2;9.7;;;;;;;9.2;100.0;100140;;;;
2022/04/06 01:42:01;;;;;;;18.2;9.7;;;;;;;9.2;100.0;100140;;;;
2022/04/06 01:43:00;;;;;;;18.2;9.7;;;;;;;9.2;100.0;100140;;;;
2022/04/06 01:44:00;;;;;;;18.2;9.7;;;;;;;9.2;100.0;100140;;;;
2022/04/06 01:45:00;;;;;;;18.2;9.7;;;;;;;9.2;100.0;100140;;;;
2022/04/06 01:46:01;;;;;;;18.2;9.7;;;;;;;9.2;100.0;100140;;;;
2022/04/06 01:47:01;;;;;;;18.2;9.7;;;;;;;9.2;100.0;100140;;;;
2022/04/06 01:48:00;;;;;;;18.2;9.7;;;;;;;9.2;100.0;100140;;;;
2022/04/06 01:53:00;;;;;;;17.2;8.6;;;;;;;9.1;100.0;100130;;;;
2022/04/06 01:54:00;;;;;;;17.2;8.6;;;;;;;9.1;100.0;100130;;;;
2022/04/06 01:55:02;;;;;;;17.2;8.6;;;;;;;9.1;100.0;100130;;;;
2022/04/06 01:56:00;;;;;;;17.2;8.6;;;;;;;9.1;100.0;100130;;;;
2022/04/06 01:57:00;;;;;;;17.2;8.6;;;;;;;9.2;100.0;100130;;;;
2022/04/06 01:58:00;;;;;;;17.2;8.6;;;;;;;9.2;100.0;100130;;;;
2022/04/06 01:59:00;;;;;;;17.2;8.6;;;;;;;9.1;100.0;100140;;;;
2022/04/06 02:00:01;;;;;;;17.2;8.6;;;;;;;9.1;100.0;100140;;;;
2022/04/06 02:01:00;;;;;;;17.2;8.6;;;;;;;9.1;100.0;100140;;;;
2022/04/06 02:02:00;;;;;;;17.2;8.6;;;;;;;9.1;100.0;100140;;;;
2022/04/06 02:03:00;;;;;;;17.2;8.6;;;;;;;9.1;100.0;100130;;;;
2022/04/06 02:04:00;;;;;;;17.2;8.6;;;;;;;9.1;100.0;100130;;;;
2022/04/06 02:05:00;;;;;;;17.2;8.6;;;;;;;9.1;100.0;100130;;;;
2022/04/06 02:06:00;;;;;;;17.2;8.6;;;;;;;9.1;100.0;100130;;;;
2022/04/06 02:07:00;;;;;;;17.2;8.6;;;;;;;9.1;100.0;100130;;;;
2022/04/06 02:08:00;;;;;;;17.2;8.6;;;;;;;9.1;100.0;100130;;;;
2022/04/06 02:09:00;;;;;;;17.2;8.6;;;;;;;9.0;100.0;100130;;;;
2022/04/06 02:10:00;;;;;;;14.2;7.2;;;;;;;9.0;100.0;100130;;;;
2022/04/06 02:11:00;;;;;;;14.2;7.2;;;;;;;9.0;100.0;100130;;;;
2022/04/06 02:12:00;;;;;;;14.2;7.2;;;;;;;9.0;100.0;100130;;;;
2022/04/06 02:13:00;;;;;;;14.2;7.2;;;;;;;9.0;100.0;100130;;;;
2022/04/06 02:14:00;;;;;;;14.2;7.2;;;;;;;9.0;100.0;100130;;;;
2022/04/06 02:15:00;;;;;;;14.2;7.2;;;;;;;9.1;100.0;100120;;;;
2022/04/06 02:16:00;;;;;;;14.2;7.2;;;;;;;9.1;100.0;100120;;;;
2022/04/06 02:17:00;;;;;;;14.2;7.2;;;;;;;9.1;100.0;100120;;;;
2022/04/06 02:18:00;;;;;;;14.2;7.2;;;;;;;9.1;100.0;100120;;;;
2022/04/06 02:19:00;;;;;;;14.2;7.2;;;;;;;9.1;100.0;100120;;;;
2022/04/06 02:20:00;;;;;;;14.2;7.2;;;;;;;9.1;100.0;100120;;;;
2022/04/06 02:21:00;;;;;;;14.2;7.2;;;;;;;9.1;100.0;100120;;;;
2022/04/06 02:22:00;;;;;;;14.2;7.2;;;;;;;9.1;100.0;100120;;;;
2022/04/06 02:23:00;;;;;;;14.2;7.2;;;;;;;9.1;100.0;100120;;;;
2022/04/06 02:24:00;;;;;;;14.2;7.2;;;;;;;9.1;100.0;100120;;;;
2022/04/06 02:25:00;;;;;;;14.2;7.2;;;;;;;9.1;100.0;100120;;;;
2022/04/06 02:26:00;;;;;;;14.2;7.2;;;;;;;9.1;100.0;100120;;;;
2022/04/06 02:27:00;;;;;;;14.2;7.2;;;;;;;9.1;100.0;100120;;;;
2022/04/06 02:28:00;;;;;;;14.2;7.2;;;;;;;9.1;100.0;100120;;;;
2022/04/06 02:29:00;;;;;;;14.2;7.2;;;;;;;9.1;100.0;100120;;;;
2022/04/06 02:30:00;;;;;;;16.8;7.2;;;;;;;9.1;100.0;100120;;;;
2022/04/06 02:31:00;;;;;;;16.8;7.2;;;;;;;9.0;100.0;100110;;;;
2022/04/06 02:32:00;;;;;;;16.8;7.2;;;;;;;9.0;100.0;100110;;;;
2022/04/06 02:33:00;;;;;;;16.8;7.2;;;;;;;9.1;100.0;100110;;;;
2022/04/06 02:34:00;;;;;;;16.8;7.2;;;;;;;9.1;100.0;100110;;;;
2022/04/06 02:35:00;;;;;;;16.8;7.2;;;;;;;9.0;100.0;100110;;;;
2022/04/06 02:36:00;;;;;;;16.8;7.2;;;;;;;9.0;100.0;100110;;;;
2022/04/06 02:37:00;;;;;;;16.8;7.2;;;;;;;9.0;100.0;100110;;;;
2022/04/06 02:38:00;;;;;;;16.8;7.2;;;;;;;9.0;100.0;100110;;;;
2022/04/06 02:39:00;;;;;;;16.8;7.2;;;;;;;9.0;100.0;100110;;;;
2022/04/06 02:40:00;;;;;;;16.8;7.2;;;;;;;9.0;100.0;100110;;;;
2022/04/06 02:41:00;;;;;;;16.8;7.2;;;;;;;9.0;100.0;100110;;;;
2022/04/06 02:42:00;;;;;;;16.8;7.2;;;;;;;9.0;100.0;100110;;;;
2022/04/06 02:43:00;;;;;;;16.8;7.2;;;;;;;8.9;100.0;100100;;;;
2022/04/06 02:44:00;;;;;;;16.8;7.2;;;;;;;8.9;100.0;100100;;;;
2022/04/06 02:45:00;;;;;;;16.8;7.2;;;;;;;9.0;100.0;100110;;;;
2022/04/06 02:46:00;;;;;;;16.8;7.2;;;;;;;9.0;100.0;100110;;;;
2022/04/06 02:47:00;;;;;;;16.8;7.2;;;;;;;9.0;100.0;100100;;;;
2022/04/06 02:48:00;;;;;;;16.8;7.2;;;;;;;9.0;100.0;100100;;;;
2022/04/06 02:49:00;;;;;;;16.8;7.2;;;;;;;8.9;100.0;100100;;;;
2022/04/06 02:50:00;;;;;;;11.8;5.6;;;;;;;8.9;100.0;100100;;;;
2022/04/06 02:51:00;;;;;;;11.8;5.6;;;;;;;8.9;100.0;100100;;;;
2022/04/06 02:52:00;;;;;;;11.8;5.6;;;;;;;8.9;100.0;100100;;;;
2022/04/06 02:53:00;;;;;;;11.8;5.6;;;;;;;8.9;100.0;100100;;;;
2022/04/06 02:54:00;;;;;;;11.8;5.6;;;;;;;8.9;100.0;100100;;;;
2022/04/06 02:55:00;;;;;;;11.8;5.6;;;;;;;8.9;100.0;100100;;;;
2022/04/06 02:56:00;;;;;;;11.8;5.6;;;;;;;8.9;100.0;100100;;;;
2022/04/06 02:57:00;;;;;;;11.8;5.6;;;;;;;8.9;100.0;100100;;;;
2022/04/06 02:58:00;;;;;;;11.8;5.6;;;;;;;8.9;100.0;100100;;;;
2022/04/06 02:59:01;;;;;;;11.8;5.6;;;;;;;8.9;100.0;100100;;;;
2022/04/06 03:00:00;;;;;;;11.8;5.6;;;;;;;8.9;100.0;100100;;;;
2022/04/06 03:01:00;;;;;;;11.8;5.6;;;;;;;9.0;100.0;100100;;;;
2022/04/06 03:02:00;;;;;;;11.8;5.6;;;;;;;9.0;100.0;100100;;;;
2022/04/06 03:03:00;;;;;;;11.8;5.6;;;;;;;8.8;100.0;100090;;;;
2022/04/06 03:04:00;;;;;;;11.8;5.6;;;;;;;8.8;100.0;100090;;;;
2022/04/06 03:05:00;;;;;;;11.8;5.6;;;;;;;8.8;100.0;100090;;;;
2022/04/06 03:06:01;;;;;;;11.8;5.6;;;;;;;8.8;100.0;100090;;;;
2022/04/06 03:07:00;;;;;;;11.8;5.6;;;;;;;8.9;100.0;100090;;;;
2022/04/06 03:08:00;;;;;;;11.8;5.6;;;;;;;8.9;100.0;100090;;;;
2022/04/06 03:09:00;;;;;;;11.8;5.6;;;;;;;8.9;100.0;100090;;;;
2022/04/06 03:10:00;;;;;;;12.6;6.0;;;;;;;8.9;100.0;100090;;;;
2022/04/06 03:11:00;;;;;;;12.6;6.0;;;;;;;8.9;100.0;100090;;;;
2022/04/06 03:12:00;;;;;;;12.6;6.0;;;;;;;8.9;100.0;100090;;;;
2022/04/06 03:13:01;;;;;;;12.6;6.0;;;;;;;8.8;100.0;100090;;;;
2022/04/06 03:14:00;;;;;;;12.6;6.0;;;;;;;8.8;100.0;100090;;;;
2022/04/06 03:15:00;;;;;;;12.6;6.0;;;;;;;8.9;100.0;100090;;;;
2022/04/06 03:16:00;;;;;;;12.6;6.0;;;;;;;8.9;100.0;100090;;;;
2022/04/06 03:17:00;;;;;;;12.6;6.0;;;;;;;8.8;100.0;100080;;;;
2022/04/06 03:18:00;;;;;;;12.6;6.0;;;;;;;8.8;100.0;100080;;;;
2022/04/06 03:19:00;;;;;;;12.6;6.0;;;;;;;8.8;100.0;100090;;;;
2022/04/06 03:20:02;;;;;;;12.6;6.0;;;;;;;8.8;100.0;100090;;;;
2022/04/06 03:21:00;;;;;;;12.6;6.0;;;;;;;8.9;100.0;100080;;;;
2022/04/06 03:22:00;;;;;;;12.6;6.0;;;;;;;8.9;100.0;100080;;;;
2022/04/06 03:23:01;;;;;;;12.6;6.0;;;;;;;8.8;100.0;100070;;;;
2022/04/06 03:24:00;;;;;;;12.6;6.0;;;;;;;8.8;100.0;100070;;;;
2022/04/06 03:25:00;;;;;;;12.6;6.0;;;;;;;8.9;100.0;100070;;;;
2022/04/06 03:26:00;;;;;;;12.6;6.0;;;;;;;8.9;100.0;100070;;;;
2022/04/06 03:27:00;;;;;;;12.6;6.0;;;;;;;8.9;100.0;100070;;;;
2022/04/06 03:28:01;;;;;;;12.6;6.0;;;;;;;8.9;100.0;100070;;;;
2022/04/06 03:29:00;;;;;;;12.6;6.0;;;;;;;8.8;100.0;100060;;;;
2022/04/06 03:30:00;;;;;;;11.7;5.8;;;;;;;8.8;100.0;100060;;;;
2022/04/06 03:31:00;;;;;;;11.7;5.8;;;;;;;8.8;100.0;100060;;;;
2022/04/06 03:32:00;;;;;;;11.7;5.8;;;;;;;8.8;100.0;100060;;;;
2022/04/06 03:33:00;;;;;;;11.7;5.8;;;;;;;8.7;100.0;100060;;;;
2022/04/06 03:34:00;;;;;;;11.7;5.8;;;;;;;8.7;100.0;100060;;;;
2022/04/06 03:35:00;;;;;;;11.7;5.8;;;;;;;8.6;100.0;100050;;;;
2022/04/06 03:36:00;;;;;;;11.7;5.8;;;;;;;8.6;100.0;100050;;;;
2022/04/06 03:37:00;;;;;;;11.7;5.8;;;;;;;8.7;100.0;100050;;;;
2022/04/06 03:38:00;;;;;;;11.7;5.8;;;;;;;8.7;100.0;100050;;;;
2022/04/06 03:39:00;;;;;;;11.7;5.8;;;;;;;8.7;100.0;100050;;;;
2022/04/06 03:40:01;;;;;;;11.7;5.8;;;;;;;8.7;100.0;100050;;;;
2022/04/06 03:41:00;;;;;;;11.7;5.8;;;;;;;8.7;100.0;100050;;;;
2022/04/06 03:42:00;;;;;;;11.7;5.8;;;;;;;8.7;100.0;100050;;;;
2022/04/06 03:43:00;;;;;;;11.7;5.8;;;;;;;8.6;100.0;100040;;;;
2022/04/06 03:44:00;;;;;;;11.7;5.8;;;;;;;8.6;100.0;100040;;;;
2022/04/06 03:45:00;;;;;;;11.7;5.8;;;;;;;8.6;100.0;100040;;;;
2022/04/06 03:46:00;;;;;;;11.7;5.8;;;;;;;8.6;100.0;100040;;;;
2022/04/06 03:47:00;;;;;;;11.7;5.8;;;;;;;8.6;100.0;100050;;;;
2022/04/06 03:48:00;;;;;;;11.7;5.8;;;;;;;8.6;100.0;100050;;;;
2022/04/06 03:49:00;;;;;;;11.7;5.8;;;;;;;8.6;100.0;100040;;;;
2022/04/06 03:50:00;;;;;;;12.4;5.3;;;;;;;8.6;100.0;100040;;;;
2022/04/06 03:51:00;;;;;;;12.4;5.3;;;;;;;8.6;100.0;100040;;;;
2022/04/06 03:52:00;;;;;;;12.4;5.3;;;;;;;8.6;100.0;100040;;;;
2022/04/06 03:53:00;;;;;;;12.4;5.3;;;;;;;8.6;100.0;100040;;;;
2022/04/06 03:54:00;;;;;;;12.4;5.3;;;;;;;8.6;100.0;100040;;;;
2022/04/06 03:55:00;;;;;;;12.4;5.3;;;;;;;8.6;100.0;100040;;;;
2022/04/06 03:56:00;;;;;;;12.4;5.3;;;;;;;8.6;100.0;100040;;;;
2022/04/06 03:57:00;;;;;;;12.4;5.3;;;;;;;8.6;100.0;100040;;;;
2022/04/06 03:58:04;;;;;;;12.4;5.3;;;;;;;8.6;100.0;100040;;;;
2022/04/06 03:59:00;;;;;;;12.4;5.3;;;;;;;8.6;100.0;100040;;;;
2022/04/06 04:00:01;;;;;;;12.4;5.3;;;;;;;8.6;100.0;100040;;;;
2022/04/06 04:01:00;;;;;;;12.4;5.3;;;;;;;8.6;100.0;100050;;;;
2022/04/06 04:02:00;;;;;;;12.4;5.3;;;;;;;8.6;100.0;100050;;;;
2022/04/06 04:03:00;;;;;;;12.4;5.3;;;;;;;8.6;100.0;100040;;;;
2022/04/06 04:04:00;;;;;;;12.4;5.3;;;;;;;8.6;100.0;100040;;;;
2022/04/06 04:05:00;;;;;;;12.4;5.3;;;;;;;8.6;100.0;100040;;;;
2022/04/06 04:06:00;;;;;;;12.4;5.3;;;;;;;8.6;100.0;100040;;;;
2022/04/06 04:07:01;;;;;;;12.4;5.3;;;;;;;8.5;100.0;100050;;;;
2022/04/06 04:08:00;;;;;;;12.4;5.3;;;;;;;8.5;100.0;100050;;;;
2022/04/06 04:09:00;;;;;;;12.4;5.3;;;;;;;8.6;100.0;100040;;;;
2022/04/06 04:10:00;;;;;;;10.9;4.7;;;;;;;8.6;100.0;100040;;;;
2022/04/06 04:11:00;;;;;;;10.9;4.7;;;;;;;8.6;100.0;100040;;;;
2022/04/06 04:12:00;;;;;;;10.9;4.7;;;;;;;8.6;100.0;100040;;;;
2022/04/06 04:13:00;;;;;;;10.9;4.7;;;;;;;8.6;100.0;100040;;;;
2022/04/06 04:14:00;;;;;;;10.9;4.7;;;;;;;8.6;100.0;100040;;;;
2022/04/06 04:15:00;;;;;;;10.9;4.7;;;;;;;8.6;100.0;100040;;;;
2022/04/06 04:16:00;;;;;;;10.9;4.7;;;;;;;8.6;100.0;100040;;;;
2022/04/06 04:17:01;;;;;;;10.9;4.7;;;;;;;8.7;100.0;100040;;;;
2022/04/06 04:18:00;;;;;;;10.9;4.7;;;;;;;8.7;100.0;100040;;;;
2022/04/06 04:19:00;;;;;;;10.9;4.7;;;;;;;8.6;100.0;100040;;;;
2022/04/06 04:20:00;;;;;;;10.9;4.7;;;;;;;8.6;100.0;100040;;;;
2022/04/06 04:22:00;;;;;;;10.9;4.7;;;;;;;8.7;100.0;100040;;;;
2022/04/06 04:23:00;;;;;;;10.9;4.7;;;;;;;8.6;100.0;100040;;;;
2022/04/06 04:24:01;;;;;;;10.9;4.7;;;;;;;8.6;100.0;100040;;;;
2022/04/06 04:25:00;;;;;;;10.9;4.7;;;;;;;8.6;100.0;100030;;;;
2022/04/06 04:26:00;;;;;;;10.9;4.7;;;;;;;8.6;100.0;100030;;;;
2022/04/06 04:27:00;;;;;;;10.9;4.7;;;;;;;8.6;100.0;100040;;;;
2022/04/06 04:28:00;;;;;;;10.9;4.7;;;;;;;8.6;100.0;100040;;;;
2022/04/06 04:29:00;;;;;;;10.9;4.7;;;;;;;8.7;100.0;100030;;;;
2022/04/06 04:30:07;;;;;;;10.2;5.0;;;;;;;8.7;100.0;100030;;;;
2022/04/06 04:31:00;;;;;;;10.2;5.0;;;;;;;8.6;100.0;100030;;;;
2022/04/06 04:32:00;;;;;;;10.2;5.0;;;;;;;8.6;100.0;100030;;;;
2022/04/06 04:33:00;;;;;;;10.2;5.0;;;;;;;8.6;100.0;100030;;;;
2022/04/06 04:34:00;;;;;;;10.2;5.0;;;;;;;8.6;100.0;100030;;;;
2022/04/06 04:35:03;;;;;;;10.2;5.0;;;;;;;8.6;100.0;100030;;;;
2022/04/06 04:36:02;;;;;;;10.2;5.0;;;;;;;8.6;100.0;100030;;;;
2022/04/06 04:37:00;;;;;;;10.2;5.0;;;;;;;8.5;100.0;100030;;;;
2022/04/06 04:38:00;;;;;;;10.2;5.0;;;;;;;8.5;100.0;100030;;;;
2022/04/06 04:39:01;;;;;;;10.2;5.0;;;;;;;8.5;100.0;100030;;;;
2022/04/06 04:40:00;;;;;;;10.2;5.0;;;;;;;8.5;100.0;100030;;;;
2022/04/06 04:41:01;;;;;;;10.2;5.0;;;;;;;8.5;100.0;100020;;;;
2022/04/06 04:42:00;;;;;;;10.2;5.0;;;;;;;8.5;100.0;100020;;;;
2022/04/06 04:43:04;;;;;;;10.2;5.0;;;;;;;8.5;100.0;100030;;;;
2022/04/06 04:44:00;;;;;;;10.2;5.0;;;;;;;8.5;100.0;100030;;;;
2022/04/06 04:45:00;;;;;;;10.2;5.0;;;;;;;8.5;100.0;100030;;;;
2022/04/06 04:46:00;;;;;;;10.2;5.0;;;;;;;8.5;100.0;100030;;;;
2022/04/06 04:47:00;;;;;;;10.2;5.0;;;;;;;8.6;100.0;100030;;;;
2022/04/06 04:48:00;;;;;;;10.2;5.0;;;;;;;8.6;100.0;100030;;;;
2022/04/06 04:49:00;;;;;;;9.6;4.1;;;;;;;8.6;100.0;100020;;;;
2022/04/06 04:50:00;;;;;;;9.6;4.1;;;;;;;8.6;100.0;100020;;;;
2022/04/06 04:51:00;;;;;;;9.6;4.1;;;;;;;8.6;100.0;100020;;;;
2022/04/06 04:52:00;;;;;;;9.6;4.1;;;;;;;8.6;100.0;100020;;;;
2022/04/06 04:53:00;;;;;;;9.6;4.1;;;;;;;8.5;100.0;100020;;;;
2022/04/06 04:54:00;;;;;;;9.6;4.1;;;;;;;8.5;100.0;100020;;;;
2022/04/06 04:55:00;;;;;;;9.6;4.1;;;;;;;8.6;100.0;100030;;;;
2022/04/06 04:56:00;;;;;;;9.6;4.1;;;;;;;8.6;100.0;100030;;;;
2022/04/06 04:58:00;;;;;;;9.6;4.1;;;;;;;8.5;100.0;100020;;;;
2022/04/06 04:59:00;;;;;;;9.6;4.1;;;;;;;8.6;100.0;100020;;;;
2022/04/06 05:00:00;;;;;;;9.6;4.1;;;;;;;8.6;100.0;100020;;;;
2022/04/06 05:01:00;;;;;;;9.6;4.1;;;;;;;8.6;100.0;100010;;;;
2022/04/06 05:02:00;;;;;;;9.6;4.1;;;;;;;8.6;100.0;100010;;;;
2022/04/06 05:03:00;;;;;;;9.6;4.1;;;;;;;8.6;100.0;100010;;;;
2022/04/06 05:04:00;;;;;;;9.6;4.1;;;;;;;8.6;100.0;100010;;;;
2022/04/06 05:05:00;;;;;;;9.6;4.1;;;;;;;8.5;100.0;100010;;;;
2022/04/06 05:06:00;;;;;;;9.6;4.1;;;;;;;8.5;100.0;100010;;;;
2022/04/06 05:07:00;;;;;;;9.6;4.1;;;;;;;8.6;100.0;100010;;;;
2022/04/06 05:08:00;;;;;;;9.6;4.1;;;;;;;8.6;100.0;100010;;;;
2022/04/06 05:09:00;;;;;;;12.3;5.5;;;;;;;8.6;100.0;100010;;;;
2022/04/06 05:10:00;;;;;;;12.3;5.5;;;;;;;8.6;100.0;100010;;;;
2022/04/06 05:11:00;;;;;;;12.3;5.5;;;;;;;8.6;100.0;100000;;;;
2022/04/06 05:12:00;;;;;;;12.3;5.5;;;;;;;8.6;100.0;100000;;;;
2022/04/06 05:13:00;;;;;;;12.3;5.5;;;;;;;8.6;100.0;100000;;;;
2022/04/06 05:14:00;;;;;;;12.3;5.5;;;;;;;8.6;100.0;100000;;;;
2022/04/06 05:15:00;;;;;;;12.3;5.5;;;;;;;8.6;100.0;100000;;;;
2022/04/06 05:16:00;;;;;;;12.3;5.5;;;;;;;8.6;100.0;100000;;;;
2022/04/06 05:17:01;;;;;;;12.3;5.5;;;;;;;8.6;100.0;100000;;;;
2022/04/06 05:18:00;;;;;;;12.3;5.5;;;;;;;8.6;100.0;100000;;;;
2022/04/06 05:19:01;;;;;;;12.3;5.5;;;;;;;8.6;100.0;100000;;;;
2022/04/06 05:20:00;;;;;;;12.3;5.5;;;;;;;8.6;100.0;100000;;;;
2022/04/06 05:21:00;;;;;;;12.3;5.5;;;;;;;8.6;100.0;99990;;;;
2022/04/06 05:22:01;;;;;;;12.3;5.5;;;;;;;8.6;100.0;99990;;;;
2022/04/06 05:23:00;;;;;;;12.3;5.5;;;;;;;8.6;100.0;99990;;;;
2022/04/06 05:24:00;;;;;;;12.3;5.5;;;;;;;8.6;100.0;99990;;;;
2022/04/06 05:25:04;;;;;;;12.3;5.5;;;;;;;8.7;100.0;99990;;;;
2022/04/06 05:26:00;;;;;;;12.3;5.5;;;;;;;8.7;100.0;99990;;;;
2022/04/06 05:27:02;;;;;;;12.3;5.5;;;;;;;8.7;100.0;99990;;;;
2022/04/06 05:28:00;;;;;;;12.3;5.5;;;;;;;8.7;100.0;99990;;;;
2022/04/06 05:29:00;;;;;;;17.4;8.0;;;;;;;8.7;100.0;99990;;;;
2022/04/06 05:30:00;;;;;;;17.4;8.0;;;;;;;8.7;100.0;99990;;;;
2022/04/06 05:31:00;;;;;;;17.4;8.0;;;;;;;8.7;100.0;99990;;;;
2022/04/06 05:32:00;;;;;;;17.4;8.0;;;;;;;8.7;100.0;99990;;;;
2022/04/06 05:33:00;;;;;;;17.4;8.0;;;;;;;8.7;100.0;99990;;;;
2022/04/06 05:34:00;;;;;;;17.4;8.0;;;;;;;8.7;100.0;99990;;;;
2022/04/06 05:35:00;;;;;;;17.4;8.0;;;;;;;8.7;100.0;99980;;;;
2022/04/06 05:36:00;;;;;;;17.4;8.0;;;;;;;8.7;100.0;99980;;;;
2022/04/06 05:37:00;;;;;;;17.4;8.0;;;;;;;8.7;100.0;99980;;;;
2022/04/06 05:38:00;;;;;;;17.4;8.0;;;;;;;8.7;100.0;99980;;;;
2022/04/06 05:39:00;;;;;;;17.4;8.0;;;;;;;8.7;100.0;99990;;;;
2022/04/06 05:40:00;;;;;;;17.4;8.0;;;;;;;8.7;100.0;99990;;;;
2022/04/06 05:41:01;;;;;;;17.4;8.0;;;;;;;8.7;100.0;99980;;;;
2022/04/06 05:42:00;;;;;;;17.4;8.0;;;;;;;8.7;100.0;99980;;;;
2022/04/06 05:43:00;;;;;;;17.4;8.0;;;;;;;8.7;100.0;99980;;;;
2022/04/06 05:44:00;;;;;;;17.4;8.0;;;;;;;8.7;100.0;99980;;;;
2022/04/06 05:45:00;;;;;;;17.4;8.0;;;;;;;8.7;100.0;99980;;;;
2022/04/06 05:46:00;;;;;;;17.4;8.0;;;;;;;8.7;100.0;99980;;;;
2022/04/06 05:47:00;;;;;;;17.4;8.0;;;;;;;8.7;100.0;99980;;;;
2022/04/06 05:48:00;;;;;;;17.4;8.0;;;;;;;8.7;100.0;99980;;;;
2022/04/06 05:49:00;;;;;;;13.5;7.1;;;;;;;8.8;100.0;99980;;;;
2022/04/06 05:50:01;;;;;;;13.5;7.1;;;;;;;8.8;100.0;99980;;;;
2022/04/06 05:51:01;;;;;;;13.5;7.1;;;;;;;8.8;100.0;99990;;;;
2022/04/06 05:52:00;;;;;;;13.5;7.1;;;;;;;8.8;100.0;99990;;;;
2022/04/06 05:53:00;;;;;;;13.5;7.1;;;;;;;8.8;100.0;99980;;;;
2022/04/06 05:54:00;;;;;;;13.5;7.1;;;;;;;8.8;100.0;99980;;;;
2022/04/06 05:55:00;;;;;;;13.5;7.1;;;;;;;8.8;100.0;99980;;;;
2022/04/06 05:56:00;;;;;;;13.5;7.1;;;;;;;8.8;100.0;99980;;;;
2022/04/06 05:57:00;;;;;;;13.5;7.1;;;;;;;8.9;100.0;99980;;;;
2022/04/06 05:58:00;;;;;;;13.5;7.1;;;;;;;8.9;100.0;99980;;;;
2022/04/06 05:59:00;;;;;;;13.5;7.1;;;;;;;8.8;100.0;99980;;;;
2022/04/06 06:00:00;;;;;;;13.5;7.1;;;;;;;8.8;100.0;99980;;;;
2022/04/06 06:01:00;;;;;;;13.5;7.1;;;;;;;8.8;100.0;99980;;;;
2022/04/06 06:02:00;;;;;;;13.5;7.1;;;;;;;8.8;100.0;99980;;;;
2022/04/06 06:03:00;;;;;;;13.5;7.1;;;;;;;8.9;100.0;99980;;;;
2022/04/06 06:04:00;;;;;;;13.5;7.1;;;;;;;8.9;100.0;99980;;;;
2022/04/06 06:05:00;;;;;;;13.5;7.1;;;;;;;9.0;100.0;99980;;;;
2022/04/06 06:06:00;;;;;;;13.5;7.1;;;;;;;9.0;100.0;99980;;;;
2022/04/06 06:07:00;;;;;;;13.5;7.1;;;;;;;9.0;100.0;99980;;;;
2022/04/06 06:08:00;;;;;;;13.5;7.1;;;;;;;9.0;100.0;99980;;;;
2022/04/06 06:09:00;;;;;;;10.3;6.0;;;;;;;8.9;100.0;99980;;;;
2022/04/06 06:10:02;;;;;;;10.3;6.0;;;;;;;8.9;100.0;99980;;;;
2022/04/06 06:11:00;;;;;;;10.3;6.0;;;;;;;8.9;100.0;99980;;;;
2022/04/06 06:12:00;;;;;;;10.3;6.0;;;;;;;8.9;100.0;99980;;;;
2022/04/06 06:13:00;;;;;;;10.3;6.0;;;;;;;8.9;100.0;99990;;;;
2022/04/06 06:14:00;;;;;;;10.3;6.0;;;;;;;8.9;100.0;99990;;;;
2022/04/06 06:15:00;;;;;;;10.3;6.0;;;;;;;8.9;100.0;99990;;;;
2022/04/06 06:16:00;;;;;;;10.3;6.0;;;;;;;8.9;100.0;99990;;;;
2022/04/06 06:17:00;;;;;;;10.3;6.0;;;;;;;9.0;100.0;99980;;;;
2022/04/06 06:18:00;;;;;;;10.3;6.0;;;;;;;9.0;100.0;99980;;;;
2022/04/06 06:19:00;;;;;;;10.3;6.0;;;;;;;8.9;100.0;99980;;;;
2022/04/06 06:20:00;;;;;;;10.3;6.0;;;;;;;8.9;100.0;99980;;;;
2022/04/06 06:21:01;;;;;;;10.3;6.0;;;;;;;8.9;100.0;99980;;;;
2022/04/06 06:22:00;;;;;;;10.3;6.0;;;;;;;8.9;100.0;99980;;;;
2022/04/06 06:23:00;;;;;;;10.3;6.0;;;;;;;8.9;100.0;99990;;;;
2022/04/06 06:24:04;;;;;;;10.3;6.0;;;;;;;8.9;100.0;99990;;;;
2022/04/06 06:25:00;;;;;;;10.3;6.0;;;;;;;8.9;100.0;99980;;;;
2022/04/06 06:26:00;;;;;;;10.3;6.0;;;;;;;8.9;100.0;99980;;;;
2022/04/06 06:27:00;;;;;;;10.3;6.0;;;;;;;8.9;100.0;99990;;;;
2022/04/06 06:28:00;;;;;;;10.3;6.0;;;;;;;8.9;100.0;99990;;;;
2022/04/06 06:29:00;;;;;;;10.1;5.1;;;;;;;8.9;100.0;99990;;;;